createdAt,value
2018-06-05T00:00:19.381Z,4.40
2018-06-05T00:01:19.381Z,3.90
2018-06-05T00:02:19.392Z,4.20
2018-06-05T00:03:19.387Z,3.70
2018-06-05T00:04:19.389Z,4.10
2018-06-05T00:05:19.391Z,3.70
2018-06-05T00:06:19.393Z,8.10
2018-06-05T00:07:19.398Z,5.30
2018-06-05T00:08:19.400Z,4.70
2018-06-05T00:09:19.401Z,5.50
2018-06-05T00:10:19.403Z,3.10
2018-06-05T00:11:19.406Z,4.10
2018-06-05T00:12:19.411Z,8.60
2018-06-05T00:13:19.409Z,7.50
2018-06-05T00:14:19.412Z,5.20
2018-06-05T00:15:19.420Z,3.80
2018-06-05T00:16:19.417Z,3.00
2018-06-05T00:17:19.419Z,4.40
2018-06-05T00:18:19.421Z,3.00
2018-06-05T00:19:19.424Z,3.60
2018-06-05T00:20:19.425Z,4.60
2018-06-05T00:21:19.427Z,4.30
2018-06-05T00:22:19.430Z,4.10
2018-06-05T00:23:19.435Z,4.40
2018-06-05T00:24:19.436Z,4.40
2018-06-05T00:25:19.438Z,5.80
2018-06-05T00:26:19.441Z,3.00
2018-06-05T00:27:19.442Z,2.80
2018-06-05T00:28:19.444Z,2.80
2018-06-05T00:29:19.446Z,2.70
2018-06-05T00:30:19.448Z,4.80
2018-06-05T00:31:19.450Z,2.90
2018-06-05T00:32:19.454Z,3.30
2018-06-05T00:33:19.454Z,6.90
2018-06-05T00:34:19.457Z,4.00
2018-06-05T00:35:19.459Z,3.10
2018-06-05T00:36:19.462Z,2.70
2018-06-05T00:37:19.463Z,3.50
2018-06-05T00:38:19.466Z,2.40
2018-06-05T00:39:19.468Z,3.00
2018-06-05T00:40:19.471Z,3.30
2018-06-05T00:41:19.471Z,2.70
2018-06-05T00:42:19.473Z,3.50
2018-06-05T00:43:19.476Z,3.90
2018-06-05T00:44:19.479Z,3.10
2018-06-05T00:45:19.480Z,3.30
2018-06-05T00:46:19.483Z,4.80
2018-06-05T00:47:19.485Z,3.70
2018-06-05T00:48:19.489Z,4.30
2018-06-05T00:49:19.492Z,3.10
2018-06-05T00:50:19.491Z,3.40
2018-06-05T00:51:19.495Z,2.30
2018-06-05T00:52:19.496Z,3.40
2018-06-05T00:53:19.498Z,2.60
2018-06-05T00:54:19.500Z,4.30
2018-06-05T00:55:19.501Z,2.70
2018-06-05T00:56:19.504Z,2.70
2018-06-05T00:57:19.505Z,3.10
2018-06-05T00:58:19.508Z,2.30
2018-06-05T00:59:19.510Z,3.10
2018-06-05T01:00:19.513Z,2.90
2018-06-05T01:01:19.514Z,2.50
2018-06-05T01:02:19.517Z,3.20
2018-06-05T01:03:19.518Z,2.80
2018-06-05T01:04:19.520Z,2.50
2018-06-05T01:05:19.521Z,3.60
2018-06-05T01:06:19.525Z,3.00
2018-06-05T01:07:19.526Z,3.60
2018-06-05T01:08:19.529Z,4.30
2018-06-05T01:09:19.529Z,2.40
2018-06-05T01:10:19.532Z,3.40
2018-06-05T01:11:19.533Z,3.00
2018-06-05T01:12:19.536Z,2.70
2018-06-05T01:13:19.538Z,2.40
2018-06-05T01:14:19.539Z,3.20
2018-06-05T01:15:19.541Z,2.50
2018-06-05T01:16:19.543Z,2.30
2018-06-05T01:17:19.546Z,6.70
2018-06-05T01:18:19.549Z,3.80
2018-06-05T01:19:19.550Z,3.60
2018-06-05T01:20:19.555Z,3.00
2018-06-05T01:21:19.553Z,2.70
2018-06-05T01:22:19.556Z,5.90
2018-06-05T01:23:19.558Z,4.00
2018-06-05T01:24:19.559Z,2.50
2018-06-05T01:25:19.561Z,3.60
2018-06-05T01:26:19.562Z,2.90
2018-06-05T01:27:19.565Z,2.50
2018-06-05T01:28:19.567Z,6.10
2018-06-05T01:29:19.567Z,2.60
2018-06-05T01:30:19.571Z,2.70
2018-06-05T01:31:19.571Z,2.50
2018-06-05T01:32:19.574Z,5.40
2018-06-05T01:33:19.576Z,2.40
2018-06-05T01:34:19.578Z,2.60
2018-06-05T01:35:19.580Z,3.50
2018-06-05T01:36:19.587Z,2.70
2018-06-05T01:37:19.582Z,2.60
2018-06-05T01:38:19.585Z,3.80
2018-06-05T01:39:19.588Z,3.50
2018-06-05T01:40:19.590Z,3.00
2018-06-05T01:41:19.590Z,3.30
2018-06-05T01:42:19.593Z,2.90
2018-06-05T01:43:19.593Z,2.70
2018-06-05T01:44:19.596Z,3.90
2018-06-05T01:45:19.596Z,3.20
2018-06-05T01:46:19.599Z,4.80
2018-06-05T01:47:19.601Z,3.20
2018-06-05T01:48:19.603Z,4.40
2018-06-05T01:49:19.604Z,4.10
2018-06-05T01:50:19.607Z,3.10
2018-06-05T01:51:19.609Z,2.60
2018-06-05T01:52:19.610Z,7.90
2018-06-05T01:53:19.611Z,5.40
2018-06-05T01:54:19.614Z,2.90
2018-06-05T01:55:19.615Z,4.10
2018-06-05T01:56:19.619Z,3.00
2018-06-05T01:57:19.618Z,3.40
2018-06-05T01:58:19.620Z,6.30
2018-06-05T01:59:19.622Z,2.70
2018-06-05T02:00:19.634Z,8.40
2018-06-05T02:01:19.624Z,4.30
2018-06-05T02:02:19.627Z,3.50
2018-06-05T02:03:19.628Z,3.00
2018-06-05T02:04:19.630Z,4.90
2018-06-05T02:05:19.630Z,2.80
2018-06-05T02:06:19.634Z,2.80
2018-06-05T02:07:19.635Z,5.70
2018-06-05T02:08:19.638Z,3.50
2018-06-05T02:09:19.638Z,2.50
2018-06-05T02:10:19.639Z,4.80
2018-06-05T02:11:19.641Z,2.70
2018-06-05T02:12:19.645Z,2.70
2018-06-05T02:13:19.645Z,3.30
2018-06-05T02:14:19.647Z,2.70
2018-06-05T02:15:19.648Z,2.70
2018-06-05T02:16:19.651Z,3.30
2018-06-05T02:17:19.654Z,2.40
2018-06-05T02:18:19.653Z,3.30
2018-06-05T02:19:19.654Z,3.40
2018-06-05T02:20:19.656Z,3.10
2018-06-05T02:21:19.662Z,9.30
2018-06-05T02:22:19.660Z,3.00
2018-06-05T02:23:19.662Z,3.30
2018-06-05T02:24:19.663Z,4.40
2018-06-05T02:25:19.665Z,5.10
2018-06-05T02:26:19.665Z,2.80
2018-06-05T02:27:19.667Z,3.60
2018-06-05T02:28:19.670Z,2.70
2018-06-05T02:29:19.671Z,3.80
2018-06-05T02:30:19.673Z,4.50
2018-06-05T02:31:19.673Z,2.80
2018-06-05T02:32:19.675Z,5.20
2018-06-05T02:33:19.676Z,2.60
2018-06-05T02:34:19.696Z,4.30
2018-06-05T02:35:19.680Z,4.70
2018-06-05T02:36:19.682Z,3.80
2018-06-05T02:37:19.683Z,2.40
2018-06-05T02:38:19.684Z,8.10
2018-06-05T02:39:19.688Z,3.00
2018-06-05T02:40:19.688Z,3.10
2018-06-05T02:41:19.692Z,2.70
2018-06-05T02:42:19.692Z,2.70
2018-06-05T02:43:19.692Z,3.20
2018-06-05T02:44:19.694Z,2.90
2018-06-05T02:45:19.698Z,3.20
2018-06-05T02:46:19.696Z,2.80
2018-06-05T02:47:19.698Z,2.70
2018-06-05T02:48:19.699Z,2.60
2018-06-05T02:49:19.701Z,3.10
2018-06-05T02:50:19.701Z,3.60
2018-06-05T02:51:19.706Z,2.60
2018-06-05T02:52:19.706Z,3.00
2018-06-05T02:53:19.707Z,2.30
2018-06-05T02:54:19.709Z,2.40
2018-06-05T02:55:19.710Z,2.50
2018-06-05T02:56:19.715Z,2.80
2018-06-05T02:57:19.715Z,2.50
2018-06-05T02:58:19.718Z,2.80
2018-06-05T02:59:19.715Z,2.90
2018-06-05T03:00:19.718Z,3.20
2018-06-05T03:01:19.719Z,2.50
2018-06-05T03:02:19.719Z,4.30
2018-06-05T03:03:19.722Z,3.60
2018-06-05T03:04:19.724Z,4.70
2018-06-05T03:05:19.725Z,3.50
2018-06-05T03:06:19.725Z,3.20
2018-06-05T03:07:19.728Z,3.20
2018-06-05T03:08:19.729Z,4.10
2018-06-05T03:09:19.729Z,3.00
2018-06-05T03:10:19.731Z,2.50
2018-06-05T03:11:19.733Z,3.00
2018-06-05T03:12:19.734Z,5.00
2018-06-05T03:13:19.734Z,2.40
2018-06-05T03:14:19.737Z,2.40
2018-06-05T03:15:19.742Z,4.00
2018-06-05T03:16:19.740Z,2.00
2018-06-05T03:17:19.741Z,4.30
2018-06-05T03:18:19.743Z,2.30
2018-06-05T03:19:19.745Z,2.50
2018-06-05T03:20:19.745Z,2.50
2018-06-05T03:21:19.746Z,2.50
2018-06-05T03:22:19.748Z,5.80
2018-06-05T03:23:19.750Z,2.90
2018-06-05T03:24:19.750Z,3.10
2018-06-05T03:25:19.752Z,3.00
2018-06-05T03:26:19.753Z,4.30
2018-06-05T03:27:19.755Z,2.90
2018-06-05T03:28:19.755Z,3.70
2018-06-05T03:29:19.757Z,4.90
2018-06-05T03:30:19.758Z,3.20
2018-06-05T03:31:19.760Z,4.20
2018-06-05T03:32:19.762Z,3.90
2018-06-05T03:33:19.761Z,2.80
2018-06-05T03:34:19.769Z,3.00
2018-06-05T03:35:19.766Z,3.00
2018-06-05T03:36:19.768Z,3.20
2018-06-05T03:37:19.767Z,4.30
2018-06-05T03:38:19.769Z,2.90
2018-06-05T03:39:19.773Z,2.70
2018-06-05T03:40:19.772Z,3.50
2018-06-05T03:41:19.773Z,7.50
2018-06-05T03:42:19.774Z,2.60
2018-06-05T03:43:19.776Z,2.20
2018-06-05T03:44:19.777Z,3.40
2018-06-05T03:45:19.777Z,2.80
2018-06-05T03:46:19.780Z,3.50
2018-06-05T03:47:19.781Z,2.70
2018-06-05T03:48:19.781Z,4.50
2018-06-05T03:49:19.783Z,3.20
2018-06-05T03:50:19.784Z,3.30
2018-06-05T03:51:19.785Z,2.30
2018-06-05T03:52:19.788Z,3.60
2018-06-05T03:53:19.788Z,2.90
2018-06-05T03:54:19.792Z,3.10
2018-06-05T03:55:19.792Z,2.60
2018-06-05T03:56:19.793Z,3.90
2018-06-05T03:57:19.795Z,2.50
2018-06-05T03:58:19.795Z,3.50
2018-06-05T03:59:19.797Z,4.30
2018-06-05T04:00:19.798Z,5.00
2018-06-05T04:01:19.799Z,3.60
2018-06-05T04:02:19.800Z,2.60
2018-06-05T04:03:19.802Z,2.80
2018-06-05T04:04:19.830Z,2.60
2018-06-05T04:05:19.803Z,3.10
2018-06-05T04:06:19.806Z,3.00
2018-06-05T04:07:19.806Z,3.50
2018-06-05T04:08:19.809Z,4.20
2018-06-05T04:09:19.809Z,3.80
2018-06-05T04:10:19.810Z,2.60
2018-06-05T04:11:19.811Z,2.60
2018-06-05T04:12:19.812Z,2.20
2018-06-05T04:13:19.815Z,2.90
2018-06-05T04:14:19.816Z,2.60
2018-06-05T04:15:19.818Z,2.80
2018-06-05T04:16:19.818Z,2.90
2018-06-05T04:17:19.820Z,2.60
2018-06-05T04:18:19.836Z,3.20
2018-06-05T04:19:19.825Z,3.00
2018-06-05T04:20:19.824Z,2.90
2018-06-05T04:21:19.824Z,3.80
2018-06-05T04:22:19.828Z,6.40
2018-06-05T04:23:19.828Z,3.00
2018-06-05T04:24:19.830Z,2.60
2018-06-05T04:25:19.831Z,4.70
2018-06-05T04:26:19.834Z,2.80
2018-06-05T04:27:19.834Z,2.50
2018-06-05T04:28:19.836Z,2.60
2018-06-05T04:29:19.835Z,2.80
2018-06-05T04:30:19.837Z,4.70
2018-06-05T04:31:19.839Z,2.90
2018-06-05T04:32:19.842Z,3.50
2018-06-05T04:33:19.842Z,3.50
2018-06-05T04:34:19.845Z,3.60
2018-06-05T04:35:19.846Z,4.00
2018-06-05T04:36:19.849Z,2.70
2018-06-05T04:37:19.849Z,4.60
2018-06-05T04:38:19.850Z,4.00
2018-06-05T04:39:19.853Z,2.70
2018-06-05T04:40:19.854Z,2.50
2018-06-05T04:41:19.855Z,3.60
2018-06-05T04:42:19.856Z,3.70
2018-06-05T04:43:19.857Z,2.90
2018-06-05T04:44:19.861Z,2.70
2018-06-05T04:45:19.860Z,5.60
2018-06-05T04:46:19.864Z,3.40
2018-06-05T04:47:19.865Z,2.60
2018-06-05T04:48:19.867Z,4.30
2018-06-05T04:49:19.868Z,2.90
2018-06-05T04:50:19.873Z,3.00
2018-06-05T04:51:19.871Z,3.10
2018-06-05T04:52:19.877Z,2.90
2018-06-05T04:53:19.875Z,3.80
2018-06-05T04:54:19.875Z,2.50
2018-06-05T04:55:19.877Z,4.80
2018-06-05T04:56:19.879Z,3.20
2018-06-05T04:57:19.880Z,5.40
2018-06-05T04:58:19.887Z,3.10
2018-06-05T04:59:19.884Z,3.10
2018-06-05T05:00:19.887Z,2.30
2018-06-05T05:01:19.886Z,2.50
2018-06-05T05:02:19.888Z,3.40
2018-06-05T05:03:19.936Z,2.50
2018-06-05T05:04:19.892Z,2.80
2018-06-05T05:05:19.894Z,3.10
2018-06-05T05:06:19.895Z,5.10
2018-06-05T05:07:19.903Z,5.20
2018-06-05T05:08:19.899Z,2.90
2018-06-05T05:09:19.900Z,2.90
2018-06-05T05:10:19.905Z,3.20
2018-06-05T05:11:19.905Z,3.60
2018-06-05T05:12:19.910Z,3.40
2018-06-05T05:13:19.913Z,3.50
2018-06-05T05:14:19.910Z,3.10
2018-06-05T05:15:19.915Z,3.30
2018-06-05T05:16:19.942Z,2.90
2018-06-05T05:17:19.917Z,3.00
2018-06-05T05:18:19.917Z,2.60
2018-06-05T05:19:19.922Z,2.80
2018-06-05T05:20:19.922Z,2.50
2018-06-05T05:21:19.923Z,5.70
2018-06-05T05:22:19.926Z,3.00
2018-06-05T05:23:19.971Z,3.30
2018-06-05T05:24:19.930Z,2.60
2018-06-05T05:25:19.931Z,4.00
2018-06-05T05:26:19.935Z,2.70
2018-06-05T05:27:19.934Z,5.50
2018-06-05T05:28:19.937Z,3.10
2018-06-05T05:29:19.939Z,4.20
2018-06-05T05:30:19.940Z,2.60
2018-06-05T05:31:19.943Z,2.90
2018-06-05T05:32:19.945Z,2.80
2018-06-05T05:33:19.946Z,2.90
2018-06-05T05:34:19.948Z,3.50
2018-06-05T05:35:19.952Z,3.60
2018-06-05T05:36:19.953Z,5.40
2018-06-05T05:37:19.956Z,3.10
2018-06-05T05:38:19.958Z,2.70
2018-06-05T05:39:19.959Z,2.80
2018-06-05T05:40:19.962Z,2.90
2018-06-05T05:41:19.964Z,3.90
2018-06-05T05:42:19.964Z,2.70
2018-06-05T05:43:19.968Z,2.60
2018-06-05T05:44:19.970Z,3.60
2018-06-05T05:45:19.971Z,2.60
2018-06-05T05:46:19.975Z,3.90
2018-06-05T05:47:19.978Z,2.30
2018-06-05T05:48:19.978Z,3.10
2018-06-05T05:49:19.981Z,2.70
2018-06-05T05:50:19.983Z,8.40
2018-06-05T05:51:19.987Z,2.80
2018-06-05T05:52:19.987Z,3.30
2018-06-05T05:53:19.989Z,6.00
2018-06-05T05:54:19.992Z,2.70
2018-06-05T05:55:19.996Z,3.80
2018-06-05T05:56:19.999Z,2.30
2018-06-05T05:57:19.999Z,2.40
2018-06-05T05:58:20.002Z,3.30
2018-06-05T05:59:20.006Z,4.60
2018-06-05T06:00:20.008Z,2.80
2018-06-05T06:01:20.009Z,3.40
2018-06-05T06:02:20.012Z,3.80
2018-06-05T06:03:20.016Z,3.70
2018-06-05T06:04:20.019Z,4.10
2018-06-05T06:05:20.021Z,2.90
2018-06-05T06:06:20.024Z,3.20
2018-06-05T06:07:20.025Z,3.30
2018-06-05T06:08:20.027Z,3.40
2018-06-05T06:09:20.030Z,3.30
2018-06-05T06:10:20.133Z,3.00
2018-06-05T06:11:20.153Z,2.90
2018-06-05T06:12:20.040Z,4.10
2018-06-05T06:13:20.109Z,3.70
2018-06-05T06:14:20.078Z,3.40
2018-06-05T06:15:20.110Z,6.10
2018-06-05T06:16:20.160Z,5.80
2018-06-05T06:17:20.052Z,7.70
2018-06-05T06:18:20.055Z,9.50
2018-06-05T06:19:20.059Z,10.50
2018-06-05T06:20:20.062Z,11.20
2018-06-05T06:21:20.065Z,13.70
2018-06-05T06:22:20.068Z,16.40
2018-06-05T06:23:20.070Z,10.40
2018-06-05T06:24:20.073Z,15.40
2018-06-05T06:25:20.077Z,23.00
2018-06-05T06:26:20.080Z,26.00
2018-06-05T06:27:20.082Z,24.20
2018-06-05T06:28:20.085Z,26.40
2018-06-05T06:29:20.090Z,22.30
2018-06-05T06:30:20.092Z,23.10
2018-06-05T06:31:20.095Z,24.80
2018-06-05T06:32:20.098Z,27.90
2018-06-05T06:33:20.101Z,33.90
2018-06-05T06:34:20.105Z,37.10
2018-06-05T06:35:20.108Z,36.20
2018-06-05T06:36:20.111Z,32.10
2018-06-05T06:37:20.115Z,33.10
2018-06-05T06:38:20.118Z,38.50
2018-06-05T06:39:20.122Z,36.10
2018-06-05T06:40:20.127Z,39.30
2018-06-05T06:41:20.127Z,31.50
2018-06-05T06:42:20.132Z,39.00
2018-06-05T06:43:20.135Z,47.80
2018-06-05T06:44:20.141Z,52.70
2018-06-05T06:45:20.142Z,37.80
2018-06-05T06:46:20.146Z,42.20
2018-06-05T06:47:20.149Z,53.80
2018-06-05T06:48:20.156Z,63.60
2018-06-05T06:49:20.156Z,61.00
2018-06-05T06:50:20.161Z,44.80
2018-06-05T06:51:20.165Z,39.20
2018-06-05T06:52:20.168Z,43.60
2018-06-05T06:53:20.179Z,76.40
2018-06-05T06:54:20.179Z,74.30
2018-06-05T06:55:20.179Z,87.30
2018-06-05T06:56:20.185Z,84.20
2018-06-05T06:57:20.190Z,98.60
2018-06-05T06:58:20.191Z,87.40
2018-06-05T06:59:20.195Z,85.70
2018-06-05T07:00:20.201Z,101.70
2018-06-05T07:01:20.204Z,91.10
2018-06-05T07:02:20.209Z,161.80
2018-06-05T07:03:20.213Z,201.80
2018-06-05T07:04:20.217Z,243.40
2018-06-05T07:05:20.222Z,218.70
2018-06-05T07:06:20.224Z,142.70
2018-06-05T07:07:20.230Z,85.80
2018-06-05T07:08:20.236Z,162.60
2018-06-05T07:09:20.238Z,251.10
2018-06-05T07:10:20.243Z,115.40
2018-06-05T07:11:20.247Z,185.30
2018-06-05T07:12:20.271Z,249.90
2018-06-05T07:13:20.257Z,298.40
2018-06-05T07:14:20.261Z,309.10
2018-06-05T07:15:20.265Z,155.90
2018-06-05T07:16:20.274Z,209.40
2018-06-05T07:17:20.274Z,358.50
2018-06-05T07:18:20.286Z,364.00
2018-06-05T07:19:20.284Z,242.20
2018-06-05T07:20:20.289Z,338.10
2018-06-05T07:21:20.294Z,259.10
2018-06-05T07:22:20.298Z,327.40
2018-06-05T07:23:20.303Z,176.10
2018-06-05T07:24:20.309Z,230.70
2018-06-05T07:25:20.314Z,323.10
2018-06-05T07:26:20.318Z,404.00
2018-06-05T07:27:20.324Z,387.20
2018-06-05T07:28:20.331Z,147.10
2018-06-05T07:29:20.337Z,151.30
2018-06-05T07:30:20.355Z,148.20
2018-06-05T07:31:20.353Z,131.90
2018-06-05T07:32:20.358Z,159.60
2018-06-05T07:33:20.366Z,188.50
2018-06-05T07:34:20.374Z,363.30
2018-06-05T07:35:20.382Z,217.80
2018-06-05T07:36:20.390Z,263.00
2018-06-05T07:37:20.399Z,285.10
2018-06-05T07:38:20.409Z,135.00
2018-06-05T07:39:20.420Z,150.00
2018-06-05T07:40:20.428Z,232.60
2018-06-05T07:41:20.437Z,249.90
2018-06-05T07:42:20.447Z,400.30
2018-06-05T07:43:20.454Z,358.70
2018-06-05T07:44:20.474Z,236.30
2018-06-05T07:45:20.476Z,182.30
2018-06-05T07:46:20.483Z,223.30
2018-06-05T07:47:20.492Z,267.50
2018-06-05T07:48:20.502Z,196.40
2018-06-05T07:49:20.510Z,285.20
2018-06-05T07:50:20.522Z,275.50
2018-06-05T07:51:20.530Z,428.00
2018-06-05T07:52:20.539Z,394.10
2018-06-05T07:53:20.575Z,417.90
2018-06-05T07:54:20.558Z,422.50
2018-06-05T07:55:20.647Z,320.60
2018-06-05T07:56:20.578Z,406.90
2018-06-05T07:57:20.585Z,254.20
2018-06-05T07:58:20.596Z,507.70
2018-06-05T07:59:20.608Z,600.50
2018-06-05T08:00:20.618Z,638.90
2018-06-05T08:01:20.628Z,688.80
2018-06-05T08:02:20.641Z,691.10
2018-06-05T08:03:20.654Z,421.00
2018-06-05T08:04:20.712Z,249.60
2018-06-05T08:05:20.678Z,527.00
2018-06-05T08:06:20.692Z,496.80
2018-06-05T08:07:20.704Z,413.00
2018-06-05T08:08:20.719Z,661.00
2018-06-05T08:09:20.731Z,739.30
2018-06-05T08:10:20.748Z,906.00
2018-06-05T08:11:20.760Z,676.40
2018-06-05T08:12:20.773Z,1022.20
2018-06-05T08:13:20.788Z,712.20
2018-06-05T08:14:20.802Z,573.20
2018-06-05T08:15:20.819Z,746.50
2018-06-05T08:16:20.833Z,597.40
2018-06-05T08:17:20.847Z,562.10
2018-06-05T08:18:20.863Z,581.90
2018-06-05T08:19:20.878Z,457.80
2018-06-05T08:20:20.893Z,391.60
2018-06-05T08:21:20.908Z,347.70
2018-06-05T08:22:20.923Z,248.80
2018-06-05T08:23:20.939Z,170.30
2018-06-05T08:24:20.973Z,213.10
2018-06-05T08:25:20.970Z,240.30
2018-06-05T08:26:20.985Z,200.90
2018-06-05T08:27:21.004Z,175.30
2018-06-05T08:28:21.019Z,154.80
2018-06-05T08:29:21.034Z,169.20
2018-06-05T08:30:21.056Z,127.80
2018-06-05T08:31:21.067Z,123.20
2018-06-05T08:32:21.083Z,86.40
2018-06-05T08:33:21.099Z,81.10
2018-06-05T08:34:21.116Z,74.60
2018-06-05T08:35:21.132Z,65.40
2018-06-05T08:36:21.149Z,32.90
2018-06-05T08:37:21.165Z,29.20
2018-06-05T08:38:21.181Z,29.00
2018-06-05T08:39:21.198Z,14.20
2018-06-05T08:40:21.214Z,15.40
2018-06-05T08:41:21.230Z,91.80
2018-06-05T08:42:21.246Z,60.10
2018-06-05T08:43:21.265Z,31.10
2018-06-05T08:44:21.280Z,18.40
2018-06-05T08:45:21.298Z,45.90
2018-06-05T08:46:21.313Z,41.50
2018-06-05T08:47:21.331Z,19.50
2018-06-05T08:48:21.348Z,10.70
2018-06-05T08:49:21.364Z,9.10
2018-06-05T08:50:21.379Z,12.00
2018-06-05T08:51:21.398Z,17.70
2018-06-05T08:52:21.415Z,70.40
2018-06-05T08:53:21.430Z,38.60
2018-06-05T08:54:21.447Z,18.80
2018-06-05T08:55:21.521Z,29.30
2018-06-05T08:56:21.480Z,34.80
2018-06-05T08:57:21.495Z,41.00
2018-06-05T08:58:21.511Z,63.10
2018-06-05T08:59:21.528Z,32.00
2018-06-05T09:00:21.545Z,45.60
2018-06-05T09:01:21.561Z,55.60
2018-06-05T09:02:21.578Z,35.70
2018-06-05T09:03:21.591Z,76.70
2018-06-05T09:04:21.609Z,143.30
2018-06-05T09:05:21.681Z,116.70
2018-06-05T09:06:21.640Z,85.40
2018-06-05T09:07:21.656Z,66.10
2018-06-05T09:08:21.674Z,61.60
2018-06-05T09:09:21.687Z,60.30
2018-06-05T09:10:21.706Z,67.10
2018-06-05T09:11:21.721Z,78.10
2018-06-05T09:12:21.735Z,127.70
2018-06-05T09:13:21.754Z,133.60
2018-06-05T09:14:21.768Z,150.10
2018-06-05T09:15:21.783Z,191.80
2018-06-05T09:16:21.799Z,223.30
2018-06-05T09:17:21.816Z,264.00
2018-06-05T09:18:21.830Z,179.30
2018-06-05T09:19:21.849Z,148.30
2018-06-05T09:20:21.865Z,279.80
2018-06-05T09:21:21.878Z,322.70
2018-06-05T09:22:21.892Z,182.20
2018-06-05T09:23:21.910Z,150.60
2018-06-05T09:24:21.928Z,178.00
2018-06-05T09:25:21.952Z,140.10
2018-06-05T09:26:21.957Z,156.50
2018-06-05T09:27:21.972Z,354.00
2018-06-05T09:28:21.989Z,477.60
2018-06-05T09:29:22.004Z,326.60
2018-06-05T09:30:22.019Z,187.30
2018-06-05T09:31:22.036Z,180.80
2018-06-05T09:32:22.149Z,426.00
2018-06-05T09:33:22.066Z,493.30
2018-06-05T09:34:22.103Z,583.60
2018-06-05T09:35:22.099Z,589.50
2018-06-05T09:36:22.113Z,591.60
2018-06-05T09:37:22.129Z,578.10
2018-06-05T09:38:22.145Z,580.00
2018-06-05T09:39:22.160Z,582.10
2018-06-05T09:40:22.181Z,578.40
2018-06-05T09:41:22.191Z,575.50
2018-06-05T09:42:22.208Z,526.80
2018-06-05T09:43:22.223Z,592.20
2018-06-05T09:44:22.238Z,586.50
2018-06-05T09:45:22.254Z,626.10
2018-06-05T09:46:22.273Z,586.30
2018-06-05T09:47:22.286Z,581.90
2018-06-05T09:48:22.301Z,616.10
2018-06-05T09:49:22.315Z,706.20
2018-06-05T09:50:22.331Z,652.30
2018-06-05T09:51:22.348Z,619.10
2018-06-05T09:52:22.365Z,605.00
2018-06-05T09:53:22.652Z,704.30
2018-06-05T09:54:22.392Z,777.50
2018-06-05T09:55:22.490Z,597.60
2018-06-05T09:56:22.426Z,729.60
2018-06-05T09:57:22.438Z,593.20
2018-06-05T09:58:22.659Z,590.60
2018-06-05T09:59:22.470Z,550.10
2018-06-05T10:00:22.488Z,653.00
2018-06-05T10:01:22.500Z,705.60
2018-06-05T10:02:22.516Z,745.00
2018-06-05T10:03:22.625Z,683.30
2018-06-05T10:04:22.547Z,596.20
2018-06-05T10:05:22.562Z,604.80
2018-06-05T10:06:22.577Z,765.00
2018-06-05T10:07:22.858Z,824.80
2018-06-05T10:08:22.606Z,838.50
2018-06-05T10:09:22.779Z,863.90
2018-06-05T10:10:22.636Z,940.40
2018-06-05T10:11:22.716Z,900.30
2018-06-05T10:12:22.667Z,943.20
2018-06-05T10:13:22.683Z,1005.20
2018-06-05T10:14:22.732Z,939.80
2018-06-05T10:15:22.841Z,906.60
2018-06-05T10:16:23.000Z,870.50
2018-06-05T10:17:22.742Z,949.50
2018-06-05T10:18:22.756Z,945.10
2018-06-05T10:19:22.775Z,757.30
2018-06-05T10:20:22.840Z,853.70
2018-06-05T10:21:22.846Z,988.60
2018-06-05T10:22:22.816Z,896.60
2018-06-05T10:23:22.833Z,771.30
2018-06-05T10:24:22.848Z,796.80
2018-06-05T10:25:22.929Z,762.90
2018-06-05T10:26:22.877Z,753.60
2018-06-05T10:27:22.899Z,749.30
2018-06-05T10:28:22.906Z,937.30
2018-06-05T10:29:22.921Z,870.10
2018-06-05T10:30:22.935Z,755.40
2018-06-05T10:31:22.950Z,736.10
2018-06-05T10:32:22.964Z,735.10
2018-06-05T10:33:22.978Z,838.20
2018-06-05T10:34:22.992Z,778.90
2018-06-05T10:35:23.007Z,831.10
2018-06-05T10:36:23.022Z,930.70
2018-06-05T10:37:23.035Z,991.80
2018-06-05T10:38:23.048Z,851.90
2018-06-05T10:39:23.066Z,911.50
2018-06-05T10:40:23.078Z,840.40
2018-06-05T10:41:23.091Z,919.70
2018-06-05T10:42:23.104Z,842.00
2018-06-05T10:43:23.119Z,898.00
2018-06-05T10:44:23.133Z,762.60
2018-06-05T10:45:23.147Z,856.30
2018-06-05T10:46:23.160Z,994.60
2018-06-05T10:47:23.188Z,659.50
2018-06-05T10:48:23.189Z,738.90
2018-06-05T10:49:23.203Z,1010.10
2018-06-05T10:50:23.217Z,984.00
2018-06-05T10:51:23.230Z,853.50
2018-06-05T10:52:23.245Z,842.50
2018-06-05T10:53:23.258Z,958.60
2018-06-05T10:54:23.273Z,864.90
2018-06-05T10:55:23.395Z,818.90
2018-06-05T10:56:23.301Z,1007.90
2018-06-05T10:57:23.314Z,867.80
2018-06-05T10:58:23.329Z,828.60
2018-06-05T10:59:23.343Z,781.60
2018-06-05T11:00:23.367Z,707.60
2018-06-05T11:01:23.370Z,717.40
2018-06-05T11:02:23.383Z,759.10
2018-06-05T11:03:23.397Z,709.30
2018-06-05T11:04:23.410Z,741.50
2018-06-05T11:05:23.424Z,1008.40
2018-06-05T11:06:23.441Z,979.70
2018-06-05T11:07:23.453Z,854.70
2018-06-05T11:08:23.466Z,794.20
2018-06-05T11:09:23.478Z,880.30
2018-06-05T11:10:23.492Z,907.20
2018-06-05T11:11:23.505Z,892.80
2018-06-05T11:12:23.520Z,804.80
2018-06-05T11:13:23.532Z,775.10
2018-06-05T11:14:23.636Z,773.70
2018-06-05T11:15:23.559Z,793.20
2018-06-05T11:16:23.576Z,722.50
2018-06-05T11:17:23.836Z,763.50
2018-06-05T11:18:23.603Z,774.10
2018-06-05T11:19:23.629Z,853.00
2018-06-05T11:20:23.627Z,698.40
2018-06-05T11:21:23.638Z,849.80
2018-06-05T11:22:23.651Z,971.60
2018-06-05T11:23:23.666Z,873.40
2018-06-05T11:24:23.678Z,942.40
2018-06-05T11:25:23.778Z,896.60
2018-06-05T11:26:23.705Z,762.70
2018-06-05T11:27:23.719Z,667.50
2018-06-05T11:28:23.731Z,678.60
2018-06-05T11:29:23.743Z,785.70
2018-06-05T11:30:23.773Z,819.80
2018-06-05T11:31:23.791Z,769.90
2018-06-05T11:32:23.783Z,992.50
2018-06-05T11:33:23.797Z,943.60
2018-06-05T11:34:23.809Z,853.30
2018-06-05T11:35:23.823Z,686.10
2018-06-05T11:36:23.839Z,769.40
2018-06-05T11:37:23.853Z,874.20
2018-06-05T11:38:24.069Z,841.00
2018-06-05T11:39:23.875Z,898.00
2018-06-05T11:40:23.887Z,852.60
2018-06-05T11:41:24.048Z,874.30
2018-06-05T11:42:23.935Z,684.50
2018-06-05T11:43:23.926Z,621.10
2018-06-05T11:44:23.939Z,837.00
2018-06-05T11:45:23.952Z,913.70
2018-06-05T11:46:23.967Z,679.90
2018-06-05T11:47:23.979Z,573.60
2018-06-05T11:48:23.996Z,604.20
2018-06-05T11:49:24.006Z,548.00
2018-06-05T11:50:24.020Z,530.50
2018-06-05T11:51:24.034Z,584.70
2018-06-05T11:52:24.045Z,558.50
2018-06-05T11:53:24.057Z,584.20
2018-06-05T11:54:24.070Z,654.60
2018-06-05T11:55:24.147Z,700.40
2018-06-05T11:56:24.355Z,816.90
2018-06-05T11:57:24.108Z,997.60
2018-06-05T11:58:24.119Z,917.90
2018-06-05T11:59:24.136Z,666.30
2018-06-05T12:00:24.145Z,927.10
2018-06-05T12:01:24.160Z,917.30
2018-06-05T12:02:24.170Z,833.20
2018-06-05T12:03:24.182Z,809.60
2018-06-05T12:04:24.196Z,804.60
2018-06-05T12:05:24.469Z,832.40
2018-06-05T12:06:24.333Z,938.90
2018-06-05T12:07:24.259Z,917.90
2018-06-05T12:08:24.461Z,888.30
2018-06-05T12:09:24.506Z,915.40
2018-06-05T12:10:24.729Z,801.20
2018-06-05T12:11:24.472Z,837.30
2018-06-05T12:12:24.544Z,913.50
2018-06-05T12:13:24.556Z,895.40
2018-06-05T12:14:24.353Z,857.20
2018-06-05T12:15:24.331Z,849.70
2018-06-05T12:16:24.341Z,824.80
2018-06-05T12:17:24.352Z,864.50
2018-06-05T12:18:24.364Z,744.40
2018-06-05T12:19:24.375Z,829.50
2018-06-05T12:20:24.386Z,925.80
2018-06-05T12:21:24.396Z,973.90
2018-06-05T12:22:24.406Z,768.30
2018-06-05T12:23:24.420Z,767.20
2018-06-05T12:24:24.426Z,758.90
2018-06-05T12:25:24.494Z,735.30
2018-06-05T12:26:24.472Z,805.30
2018-06-05T12:27:24.456Z,982.10
2018-06-05T12:28:24.465Z,515.00
2018-06-05T12:29:24.672Z,910.50
2018-06-05T12:30:24.486Z,785.00
2018-06-05T12:31:24.496Z,648.00
2018-06-05T12:32:24.589Z,768.00
2018-06-05T12:33:24.661Z,622.90
2018-06-05T12:34:24.531Z,537.90
2018-06-05T12:35:24.539Z,697.10
2018-06-05T12:36:24.549Z,871.60
2018-06-05T12:37:24.562Z,756.60
2018-06-05T12:38:24.570Z,743.90
2018-06-05T12:39:24.672Z,820.30
2018-06-05T12:40:24.711Z,852.50
2018-06-05T12:41:24.878Z,841.80
2018-06-05T12:42:26.992Z,942.30
2018-06-05T12:43:24.749Z,933.50
2018-06-05T12:44:24.918Z,778.80
2018-06-05T12:45:24.642Z,778.00
2018-06-05T12:46:24.652Z,761.90
2018-06-05T12:47:24.666Z,813.50
2018-06-05T12:48:24.674Z,781.30
2018-06-05T12:49:24.684Z,743.00
2018-06-05T12:50:24.696Z,945.30
2018-06-05T12:51:24.796Z,965.20
2018-06-05T12:52:24.725Z,943.70
2018-06-05T12:53:24.788Z,1063.10
2018-06-05T12:54:24.743Z,1010.80